createdAt,value
2019-04-16T00:02:19.500Z,8.87
2019-04-16T00:05:02.737Z,9.37
2019-04-16T00:07:43.031Z,9.30
2019-04-16T00:10:17.007Z,9.93
2019-04-16T00:12:56.777Z,8.93
2019-04-16T00:15:26.146Z,10.67
2019-04-16T00:17:55.476Z,9.27
2019-04-16T00:20:24.818Z,10.30
2019-04-16T00:22:55.806Z,10.40
2019-04-16T00:25:25.158Z,12.30
2019-04-16T00:27:54.583Z,12.17
2019-04-16T00:30:25.976Z,8.17
2019-04-16T00:32:55.005Z,9.63
2019-04-16T00:35:24.339Z,8.73
2019-04-16T00:37:53.673Z,9.33
2019-04-16T00:40:26.352Z,9.57
2019-04-16T00:42:54.083Z,9.87
2019-04-16T00:45:23.436Z,12.37
2019-04-16T00:47:52.768Z,12.47
2019-04-16T00:50:22.101Z,9.43
2019-04-16T00:52:51.444Z,9.87
2019-04-16T00:55:20.784Z,10.43
2019-04-16T00:57:50.134Z,9.73
2019-04-16T01:00:19.474Z,11.83
2019-04-16T01:02:48.815Z,11.73
2019-04-16T01:05:18.231Z,10.07
2019-04-16T01:07:47.573Z,10.83
2019-04-16T01:10:16.917Z,8.10
2019-04-16T01:12:46.239Z,9.43
2019-04-16T01:15:15.595Z,11.13
2019-04-16T01:17:44.927Z,9.73
2019-04-16T01:20:14.332Z,11.87
2019-04-16T01:22:46.621Z,11.23
2019-04-16T01:25:14.762Z,8.30
2019-04-16T01:27:45.743Z,10.17
2019-04-16T01:30:16.864Z,12.13
2019-04-16T01:32:53.601Z,11.70
2019-04-16T01:35:27.521Z,10.43
2019-04-16T01:38:14.943Z,11.67
2019-04-16T01:40:47.376Z,9.43
2019-04-16T01:43:17.455Z,11.03
2019-04-16T01:45:46.795Z,9.93
2019-04-16T01:48:16.131Z,9.27
2019-04-16T01:50:45.459Z,9.57
2019-04-16T01:53:14.827Z,10.67
2019-04-16T01:55:44.233Z,10.00
2019-04-16T01:58:14.542Z,9.60
2019-04-16T02:00:43.876Z,9.90
2019-04-16T02:03:17.540Z,9.37
2019-04-16T02:05:44.281Z,11.37
2019-04-16T02:08:13.613Z,10.73
2019-04-16T02:10:42.957Z,10.17
2019-04-16T02:13:15.208Z,9.87
2019-04-16T02:15:43.362Z,8.67
2019-04-16T02:18:12.873Z,9.43
2019-04-16T02:20:42.242Z,9.63
2019-04-16T02:23:13.504Z,16.13
2019-04-16T02:25:42.640Z,11.27
2019-04-16T02:28:11.984Z,11.13
2019-04-16T02:30:41.318Z,9.83
2019-04-16T02:33:10.868Z,10.20
2019-04-16T02:35:40.169Z,9.17
2019-04-16T02:38:12.262Z,9.27
2019-04-16T02:40:40.579Z,10.97
2019-04-16T02:43:09.926Z,13.73
2019-04-16T02:45:39.268Z,10.23
2019-04-16T02:48:15.267Z,10.47
2019-04-16T02:50:43.977Z,10.63
2019-04-16T02:53:31.314Z,11.47
2019-04-16T02:56:19.313Z,11.07
2019-04-16T02:58:53.346Z,9.53
2019-04-16T03:01:27.043Z,10.43
2019-04-16T03:04:03.763Z,11.50
2019-04-16T03:06:33.108Z,10.57
2019-04-16T03:09:05.357Z,9.93
2019-04-16T03:11:33.747Z,10.47
2019-04-16T03:14:03.091Z,10.90
2019-04-16T03:16:43.315Z,10.07
2019-04-16T03:19:20.095Z,10.20
2019-04-16T03:21:48.095Z,10.23
2019-04-16T03:24:17.429Z,9.57
2019-04-16T03:26:47.619Z,12.10
2019-04-16T03:29:17.825Z,9.97
2019-04-16T03:31:47.247Z,9.73
2019-04-16T03:34:19.059Z,14.87
2019-04-16T03:36:47.725Z,11.03
2019-04-16T03:39:17.059Z,9.90
2019-04-16T03:41:46.405Z,11.43
2019-04-16T03:44:15.745Z,9.43
2019-04-16T03:46:46.791Z,11.07
2019-04-16T03:49:16.170Z,10.20
2019-04-16T03:51:45.570Z,11.80
2019-04-16T03:54:15.262Z,10.30
2019-04-16T03:56:44.597Z,12.97
2019-04-16T03:59:13.939Z,10.73
2019-04-16T04:01:45.967Z,10.30
2019-04-16T04:04:14.348Z,10.90
2019-04-16T04:06:43.685Z,11.00
2019-04-16T04:09:13.036Z,10.23
2019-04-16T04:11:42.379Z,10.93
2019-04-16T04:14:11.721Z,11.20
2019-04-16T04:16:41.141Z,11.37
2019-04-16T04:19:14.069Z,10.80
2019-04-16T04:21:44.567Z,10.57
2019-04-16T04:24:13.921Z,10.93
2019-04-16T04:26:43.254Z,9.03
2019-04-16T04:29:12.600Z,9.80
2019-04-16T04:31:41.942Z,10.27
2019-04-16T04:34:15.763Z,9.27
2019-04-16T04:36:42.354Z,11.50
2019-04-16T04:39:15.317Z,10.87
2019-04-16T04:41:42.770Z,10.10
2019-04-16T04:44:12.125Z,10.83
2019-04-16T04:46:43.304Z,10.20
2019-04-16T04:49:12.584Z,9.70
2019-04-16T04:51:43.514Z,10.40
2019-04-16T04:54:13.042Z,12.43
2019-04-16T04:56:42.846Z,11.80
2019-04-16T04:59:12.288Z,12.57
2019-04-16T05:01:42.590Z,11.53
2019-04-16T05:04:20.448Z,10.40
2019-04-16T05:06:57.263Z,11.57
2019-04-16T05:09:29.385Z,10.40
2019-04-16T05:11:57.896Z,11.33
2019-04-16T05:14:27.238Z,10.63
2019-04-16T05:16:56.577Z,14.40
2019-04-16T05:19:25.922Z,11.27
2019-04-16T05:21:55.275Z,10.93
2019-04-16T05:24:28.927Z,12.97
2019-04-16T05:26:56.403Z,10.37
2019-04-16T05:29:25.895Z,11.83
2019-04-16T05:31:57.444Z,14.93
2019-04-16T05:34:26.324Z,12.73
2019-04-16T05:36:55.666Z,11.20
2019-04-16T05:39:28.292Z,11.10
2019-04-16T05:41:57.616Z,12.90
2019-04-16T05:44:26.958Z,10.83
2019-04-16T05:46:56.301Z,11.23
2019-04-16T05:49:26.462Z,10.83
2019-04-16T05:51:55.856Z,10.93
2019-04-16T05:54:35.688Z,9.30
2019-04-16T05:57:07.002Z,10.70
2019-04-16T05:59:36.350Z,14.40
2019-04-16T06:02:09.763Z,12.83
2019-04-16T06:04:39.114Z,15.90
2019-04-16T06:07:08.463Z,12.07
2019-04-16T06:09:37.970Z,11.23
2019-04-16T06:12:08.785Z,10.53
2019-04-16T06:14:49.742Z,11.03
2019-04-16T06:17:31.769Z,11.20
2019-04-16T06:20:02.679Z,9.73
2019-04-16T06:22:33.656Z,10.83
2019-04-16T06:25:20.791Z,11.80
2019-04-16T06:27:54.477Z,11.70
2019-04-16T06:30:33.879Z,10.57
2019-04-16T06:33:13.258Z,10.77
2019-04-16T06:35:59.519Z,11.13
2019-04-16T06:38:45.498Z,10.53
2019-04-16T06:41:16.502Z,12.50
2019-04-16T06:43:47.479Z,11.40
2019-04-16T06:46:39.384Z,10.13
2019-04-16T06:49:17.696Z,8.70
2019-04-16T06:52:01.234Z,14.17
2019-04-16T06:54:41.441Z,11.97
2019-04-16T06:57:21.528Z,11.80
2019-04-16T07:00:07.145Z,13.47
2019-04-16T07:02:50.222Z,13.40
2019-04-16T07:05:33.030Z,10.63
2019-04-16T07:08:06.510Z,12.13
2019-04-16T07:10:44.663Z,10.67
2019-04-16T07:13:14.283Z,9.07
2019-04-16T07:15:43.735Z,11.60
2019-04-16T07:18:13.082Z,10.43
2019-04-16T07:20:45.871Z,10.90
2019-04-16T07:23:13.682Z,11.43
2019-04-16T07:25:44.235Z,12.13
2019-04-16T07:28:25.789Z,13.67
2019-04-16T07:31:14.715Z,9.80
2019-04-16T07:33:53.691Z,13.97
2019-04-16T07:36:42.671Z,9.10
2019-04-16T07:39:29.599Z,13.40
2019-04-16T07:42:10.721Z,10.40
2019-04-16T07:44:56.368Z,11.90
2019-04-16T07:47:43.619Z,12.10
2019-04-16T07:50:32.414Z,10.30
2019-04-16T07:53:19.603Z,9.60
2019-04-16T07:55:59.346Z,11.43
2019-04-16T07:58:28.693Z,11.87
2019-04-16T08:00:58.113Z,12.93
2019-04-16T08:03:27.639Z,10.70
2019-04-16T08:05:57.084Z,14.03
2019-04-16T08:08:26.445Z,11.07
2019-04-16T08:10:56.101Z,11.80
2019-04-16T08:13:27.198Z,12.43
2019-04-16T08:15:57.502Z,10.30
2019-04-16T08:18:27.269Z,11.20
2019-04-16T08:21:02.274Z,10.00
2019-04-16T08:23:32.020Z,11.90
2019-04-16T08:26:04.837Z,12.83
2019-04-16T08:28:34.372Z,10.93
2019-04-16T08:31:04.185Z,8.93
2019-04-16T08:33:33.529Z,11.10
2019-04-16T08:36:03.113Z,10.70
2019-04-16T08:38:34.848Z,9.07
2019-04-16T08:41:03.790Z,15.00
2019-04-16T08:43:33.130Z,15.63
2019-04-16T08:46:02.472Z,11.10
2019-04-16T08:48:31.820Z,13.33
2019-04-16T08:51:04.280Z,11.90
2019-04-16T08:53:35.406Z,10.83
2019-04-16T08:56:03.791Z,13.07
2019-04-16T08:58:35.677Z,10.50
2019-04-16T09:01:06.026Z,13.00
2019-04-16T09:03:35.366Z,11.63
2019-04-16T09:06:04.780Z,13.63
2019-04-16T09:08:38.458Z,10.27
2019-04-16T09:11:21.798Z,10.30
2019-04-16T09:13:48.125Z,11.70
2019-04-16T09:16:17.891Z,11.80
2019-04-16T09:18:51.755Z,16.03
2019-04-16T09:21:21.099Z,9.07
2019-04-16T09:23:56.270Z,10.93
2019-04-16T09:26:33.217Z,13.50
2019-04-16T09:29:10.497Z,11.77
2019-04-16T09:31:47.012Z,14.47
2019-04-16T09:34:20.790Z,14.47
2019-04-16T09:36:51.810Z,13.63
2019-04-16T09:39:22.866Z,13.47
2019-04-16T09:41:52.445Z,9.97
2019-04-16T09:44:22.127Z,13.30
2019-04-16T09:46:52.402Z,11.33
2019-04-16T09:49:21.947Z,12.77
2019-04-16T09:51:51.310Z,13.13
2019-04-16T09:54:20.619Z,13.13
2019-04-16T09:56:49.962Z,17.40
2019-04-16T09:59:23.652Z,12.93
2019-04-16T10:01:54.645Z,14.10
2019-04-16T10:04:27.081Z,12.03
2019-04-16T10:06:56.433Z,11.87
2019-04-16T10:09:25.787Z,12.80
2019-04-16T10:11:57.227Z,11.03
2019-04-16T10:14:26.483Z,14.30
2019-04-16T10:16:55.863Z,14.67
2019-04-16T10:19:25.216Z,13.77
2019-04-16T10:21:54.834Z,12.20
2019-04-16T10:24:25.853Z,13.40
2019-04-16T10:26:59.682Z,13.57
2019-04-16T10:29:27.876Z,13.57
2019-04-16T10:31:57.251Z,13.13
2019-04-16T10:34:26.874Z,15.53
2019-04-16T10:36:56.330Z,11.17
2019-04-16T10:39:36.494Z,14.37
2019-04-16T10:42:07.729Z,13.23
2019-04-16T10:44:47.904Z,14.50
2019-04-16T10:47:19.931Z,14.97
2019-04-16T10:49:54.220Z,16.40
2019-04-16T10:52:25.208Z,17.07
2019-04-16T10:55:12.245Z,18.63
2019-04-16T10:57:43.663Z,14.63
2019-04-16T11:00:27.586Z,14.20
2019-04-16T11:03:04.750Z,14.57
2019-04-16T11:05:41.685Z,12.37
2019-04-16T11:08:11.922Z,12.40
2019-04-16T11:10:41.415Z,15.17
2019-04-16T11:13:12.438Z,15.37
2019-04-16T11:15:42.123Z,12.37
2019-04-16T11:18:11.721Z,14.53
2019-04-16T11:20:41.132Z,14.37
2019-04-16T11:23:10.482Z,15.40
2019-04-16T11:25:39.823Z,14.83
2019-04-16T11:28:09.483Z,13.90
2019-04-16T11:30:40.472Z,12.50
2019-04-16T11:33:09.864Z,15.20
2019-04-16T11:35:39.169Z,14.60
2019-04-16T11:38:08.521Z,18.05
2019-04-16T11:40:40.941Z,16.10
2019-04-16T11:43:09.032Z,13.83
2019-04-16T11:45:38.347Z,14.50
2019-04-16T11:48:07.738Z,16.57
2019-04-16T11:50:37.117Z,13.78
2019-04-16T11:53:06.506Z,14.38
2019-04-16T11:55:35.828Z,16.87
2019-04-16T11:58:06.979Z,15.08
2019-04-16T12:00:54.266Z,13.48
2019-04-16T12:03:25.377Z,15.90
2019-04-16T12:05:56.384Z,15.95
2019-04-16T12:08:42.636Z,17.73
2019-04-16T12:11:19.772Z,18.37
2019-04-16T12:13:51.043Z,14.70
2019-04-16T12:16:24.391Z,18.35
2019-04-16T12:18:54.882Z,16.93
2019-04-16T12:21:40.842Z,13.85
2019-04-16T12:24:29.841Z,14.70
2019-04-16T12:27:03.377Z,16.65
2019-04-16T12:29:41.217Z,16.87
2019-04-16T12:32:12.154Z,16.85
2019-04-16T12:34:51.149Z,16.60
2019-04-16T12:37:38.318Z,15.65
2019-04-16T12:40:12.525Z,16.30
2019-04-16T12:42:43.500Z,17.65
2019-04-16T12:45:21.714Z,14.35
2019-04-16T12:47:59.227Z,16.12
2019-04-16T12:50:36.177Z,15.20
2019-04-16T12:53:16.430Z,20.12
2019-04-16T12:55:50.341Z,17.52
2019-04-16T12:58:21.346Z,17.60
2019-04-16T13:01:04.731Z,15.20
2019-04-16T13:03:36.264Z,15.55
2019-04-16T13:06:13.346Z,16.50
2019-04-16T13:09:00.396Z,16.15
2019-04-16T13:11:35.004Z,15.72
2019-04-16T13:14:16.248Z,16.00
2019-04-16T13:16:53.138Z,18.98
2019-04-16T13:19:39.347Z,33.35
2019-04-16T13:22:10.329Z,17.40
2019-04-16T13:24:41.331Z,15.55
2019-04-16T13:27:18.809Z,17.35
2019-04-16T13:29:48.163Z,17.05
2019-04-16T13:32:17.521Z,18.75
2019-04-16T13:34:46.869Z,16.02
2019-04-16T13:37:16.217Z,16.40
2019-04-16T13:39:50.004Z,20.52
2019-04-16T13:42:19.329Z,18.75
2019-04-16T13:45:16.939Z,15.25
2019-04-16T13:47:38.221Z,18.27
2019-04-16T13:50:12.488Z,16.27
2019-04-16T13:52:42.006Z,17.27
2019-04-16T13:55:18.726Z,15.38
2019-04-16T13:58:02.211Z,16.15
2019-04-16T14:00:39.273Z,14.33
2019-04-16T14:03:10.270Z,15.38
2019-04-16T14:05:42.608Z,16.57
2019-04-16T14:08:10.748Z,16.32
2019-04-16T14:10:43.058Z,17.00
2019-04-16T14:13:13.479Z,18.98
2019-04-16T14:15:44.751Z,15.58
2019-04-16T14:18:13.312Z,15.50
2019-04-16T14:20:42.666Z,16.80
2019-04-16T14:23:12.023Z,14.28
2019-04-16T14:25:41.406Z,17.37
2019-04-16T14:28:10.832Z,18.05
2019-04-16T14:30:42.751Z,17.77
2019-04-16T14:33:14.397Z,19.12
2019-04-16T14:35:43.743Z,17.05
2019-04-16T14:38:14.729Z,16.62
2019-04-16T14:40:44.083Z,17.35
2019-04-16T14:43:15.065Z,17.67
2019-04-16T14:45:58.405Z,15.00
2019-04-16T14:48:19.865Z,16.30
2019-04-16T14:50:49.217Z,18.10
2019-04-16T14:53:20.206Z,17.57
2019-04-16T14:55:59.623Z,16.70
2019-04-16T14:58:23.918Z,16.57
2019-04-16T15:01:12.986Z,17.27
2019-04-16T15:03:49.769Z,16.35
2019-04-16T15:06:20.740Z,16.23
2019-04-16T15:08:51.750Z,18.45
2019-04-16T15:11:25.716Z,20.55
2019-04-16T15:13:56.829Z,16.77
2019-04-16T15:16:39.777Z,16.10
2019-04-16T15:19:27.125Z,16.27
2019-04-16T15:22:14.761Z,19.23
2019-04-16T15:24:52.019Z,17.02
2019-04-16T15:27:23.005Z,19.10
2019-04-16T15:29:56.640Z,18.40
2019-04-16T15:32:42.300Z,17.25
2019-04-16T15:35:16.154Z,17.12
2019-04-16T15:37:59.346Z,17.23
2019-04-16T15:40:39.170Z,22.02
2019-04-16T15:43:08.939Z,15.08
2019-04-16T15:45:39.932Z,17.85
2019-04-16T15:48:14.913Z,15.90
2019-04-16T15:50:52.634Z,18.32
2019-04-16T15:53:32.380Z,18.57
2019-04-16T15:56:03.375Z,22.48
2019-04-16T15:58:34.353Z,18.50
2019-04-16T16:01:05.343Z,17.87
2019-04-16T16:03:52.484Z,21.48
2019-04-16T16:06:23.475Z,20.15
2019-04-16T16:09:00.344Z,17.67
2019-04-16T16:11:31.336Z,18.70
2019-04-16T16:14:01.632Z,18.65
2019-04-16T16:16:41.509Z,17.85
2019-04-16T16:19:03.500Z,20.37
2019-04-16T16:21:32.899Z,19.02
2019-04-16T16:24:06.113Z,18.60
2019-04-16T16:26:33.320Z,17.67
2019-04-16T16:29:02.823Z,19.87
2019-04-16T16:31:35.472Z,19.02
2019-04-16T16:34:03.250Z,20.55
2019-04-16T16:36:36.244Z,18.27
2019-04-16T16:39:05.809Z,22.10
2019-04-16T16:41:35.160Z,17.05
2019-04-16T16:44:04.644Z,17.42
2019-04-16T16:46:55.937Z,18.55
2019-04-16T16:49:15.770Z,18.20
2019-04-16T16:51:49.464Z,18.05
2019-04-16T16:54:20.453Z,16.77
2019-04-16T16:57:02.070Z,19.07
2019-04-16T16:59:46.649Z,18.15
2019-04-16T17:02:29.995Z,19.52
2019-04-16T17:05:00.533Z,22.60
2019-04-16T17:07:29.881Z,18.90
2019-04-16T17:09:59.283Z,16.55
2019-04-16T17:12:28.595Z,20.88
2019-04-16T17:14:57.955Z,19.30
2019-04-16T17:17:27.301Z,18.20
2019-04-16T17:19:56.654Z,18.48
2019-04-16T17:22:26.000Z,18.60
2019-04-16T17:24:55.349Z,18.87
2019-04-16T17:27:24.716Z,17.35
2019-04-16T17:29:55.090Z,18.35
2019-04-16T17:32:24.619Z,18.07
2019-04-16T17:34:53.962Z,17.50
2019-04-16T17:37:27.784Z,18.90
2019-04-16T17:39:55.920Z,17.15
2019-04-16T17:42:26.916Z,17.40
2019-04-16T17:45:14.258Z,17.42
2019-04-16T17:48:01.379Z,18.10
2019-04-16T17:50:39.309Z,21.27
2019-04-16T17:53:23.370Z,19.65
2019-04-16T17:56:03.417Z,19.15
2019-04-16T17:58:36.887Z,21.23
2019-04-16T18:01:13.760Z,24.25
2019-04-16T18:03:44.751Z,21.40
2019-04-16T18:06:18.630Z,21.48
2019-04-16T18:09:06.049Z,19.45
2019-04-16T18:11:49.036Z,21.10
2019-04-16T18:14:36.544Z,20.90
2019-04-16T18:17:07.624Z,21.68
2019-04-16T18:19:41.241Z,16.20
2019-04-16T18:22:15.878Z,19.17
2019-04-16T18:24:53.568Z,18.45
2019-04-16T18:27:33.787Z,19.55
2019-04-16T18:30:21.410Z,16.85
2019-04-16T18:33:08.630Z,19.87
2019-04-16T18:35:39.625Z,16.85
2019-04-16T18:38:22.242Z,18.02
2019-04-16T18:40:55.412Z,15.83
2019-04-16T18:43:34.937Z,16.77
2019-04-16T18:46:21.354Z,19.40
2019-04-16T18:48:54.378Z,24.10
2019-04-16T18:51:24.071Z,20.15
2019-04-16T18:53:53.665Z,21.05
2019-04-16T18:56:23.058Z,22.90
2019-04-16T18:58:52.525Z,21.30
2019-04-16T19:01:25.021Z,20.53
2019-04-16T19:03:54.730Z,17.30
2019-04-16T19:06:24.137Z,20.53
2019-04-16T19:08:53.747Z,18.82
2019-04-16T19:11:23.083Z,18.00
2019-04-16T19:13:52.431Z,18.87
2019-04-16T19:16:21.775Z,19.13
2019-04-16T19:18:51.128Z,23.07
2019-04-16T19:21:20.540Z,17.90
2019-04-16T19:23:49.898Z,18.93
2019-04-16T19:26:19.344Z,17.53
2019-04-16T19:28:48.693Z,20.00
2019-04-16T19:31:22.731Z,18.23
2019-04-16T19:33:49.134Z,19.50
2019-04-16T19:36:19.804Z,18.20
2019-04-16T19:38:49.554Z,16.90
2019-04-16T19:41:23.358Z,18.47
2019-04-16T19:43:49.997Z,28.97
2019-04-16T19:46:19.344Z,15.77
2019-04-16T19:48:48.692Z,21.70
2019-04-16T19:51:19.825Z,18.00
2019-04-16T19:53:49.302Z,20.57
2019-04-16T19:56:19.649Z,18.73
2019-04-16T19:58:49.091Z,18.27
2019-04-16T20:01:18.513Z,22.60
2019-04-16T20:03:47.868Z,19.43
2019-04-16T20:06:17.218Z,18.57
2019-04-16T20:08:46.560Z,17.23
2019-04-16T20:11:20.460Z,19.90
2019-04-16T20:13:46.988Z,21.53
2019-04-16T20:16:16.399Z,21.43
2019-04-16T20:18:51.143Z,19.63
2019-04-16T20:21:17.106Z,23.03
2019-04-16T20:23:46.450Z,22.20
2019-04-16T20:26:15.814Z,20.70
2019-04-16T20:28:45.352Z,24.77
2019-04-16T20:31:16.221Z,23.80
2019-04-16T20:33:45.562Z,25.93
2019-04-16T20:36:14.908Z,24.33
2019-04-16T20:38:44.357Z,21.00
2019-04-16T20:41:18.155Z,17.43
2019-04-16T20:43:44.778Z,16.93
2019-04-16T20:46:14.137Z,16.30
2019-04-16T20:48:44.934Z,19.00
2019-04-16T20:51:14.558Z,14.40
2019-04-16T20:53:43.902Z,15.67
2019-04-16T20:56:13.247Z,17.03
2019-04-16T20:58:42.598Z,16.63
2019-04-16T21:01:12.015Z,19.70
2019-04-16T21:03:41.366Z,20.00
2019-04-16T21:06:10.987Z,17.17
2019-04-16T21:08:40.326Z,15.93
2019-04-16T21:11:09.877Z,20.70
2019-04-16T21:13:39.232Z,15.70
2019-04-16T21:16:08.753Z,14.00
2019-04-16T21:18:38.100Z,16.13
2019-04-16T21:21:07.815Z,15.87
2019-04-16T21:23:37.168Z,14.13
2019-04-16T21:26:06.520Z,16.30
2019-04-16T21:28:37.521Z,14.67
2019-04-16T21:31:12.989Z,15.20
2019-04-16T21:33:43.935Z,12.17
2019-04-16T21:36:33.823Z,11.90
2019-04-16T21:39:17.135Z,12.37
2019-04-16T21:41:43.882Z,14.67
2019-04-16T21:44:13.374Z,13.63
2019-04-16T21:46:42.654Z,14.03
2019-04-16T21:49:11.996Z,13.57
2019-04-16T21:51:59.275Z,12.90
2019-04-16T21:54:30.581Z,14.83
2019-04-16T21:57:00.168Z,12.77
2019-04-16T21:59:29.586Z,13.07
2019-04-16T22:01:59.637Z,14.63
2019-04-16T22:04:28.936Z,12.20
2019-04-16T22:06:58.297Z,13.20
2019-04-16T22:09:27.644Z,17.20
2019-04-16T22:11:57.002Z,14.07
2019-04-16T22:14:26.352Z,15.37
2019-04-16T22:16:55.997Z,13.57
2019-04-16T22:19:25.425Z,16.70
2019-04-16T22:21:54.771Z,18.80
2019-04-16T22:24:24.131Z,13.57
2019-04-16T22:26:53.473Z,12.20
2019-04-16T22:29:22.818Z,11.53
2019-04-16T22:31:52.718Z,15.23
2019-04-16T22:34:23.229Z,13.77
2019-04-16T22:36:52.572Z,11.67
2019-04-16T22:39:26.454Z,14.20
2019-04-16T22:41:58.422Z,14.13
2019-04-16T22:44:48.213Z,10.57
2019-04-16T22:47:21.933Z,12.80
2019-04-16T22:49:51.658Z,19.03
2019-04-16T22:52:22.346Z,10.33
2019-04-16T22:54:52.990Z,13.37
2019-04-16T22:57:22.525Z,13.17
2019-04-16T22:59:51.853Z,15.67
2019-04-16T23:02:22.855Z,10.13
2019-04-16T23:04:54.813Z,14.60
2019-04-16T23:07:23.293Z,11.80
2019-04-16T23:09:52.633Z,13.00
2019-04-16T23:12:27.187Z,12.57
2019-04-16T23:14:53.049Z,14.23
2019-04-16T23:17:24.042Z,11.67
2019-04-16T23:19:54.747Z,15.37
2019-04-16T23:22:24.458Z,11.07
2019-04-16T23:24:55.134Z,11.40
2019-04-16T23:27:24.903Z,11.50
2019-04-16T23:29:54.239Z,12.60
2019-04-16T23:32:27.429Z,10.53
2019-04-16T23:34:54.826Z,11.47
2019-04-16T23:37:24.170Z,11.13
2019-04-16T23:39:53.527Z,10.43
2019-04-16T23:42:22.876Z,14.27
2019-04-16T23:45:06.131Z,11.60
2019-04-16T23:47:49.390Z,14.20
2019-04-16T23:50:26.305Z,10.73
2019-04-16T23:53:00.262Z,12.37
2019-04-16T23:55:36.890Z,11.07
2019-04-16T23:58:10.899Z,12.90
